Time;durP1;ratioP1;P1;durP2;ratioP2;P2;SDS_P1;SDS_P2;PMS_P1;PMS_P2;Temp;Humidity;BMP_temperature;BMP_pressure;BME280_temperature;BME280_humidity;BME280_pressure;Samples;Min_cycle;Max_cycle;Signal;HPM_P1;HPM_P2
2021/01/08 00:00:45;;;;;;;32.47;17.85;;;2.80;99.90;;;;;;4940236;29;20122;-80
2021/01/08 00:03:11;;;;;;;31.38;19.90;;;2.90;99.90;;;;;;4939903;29;20130;-80
2021/01/08 00:05:38;;;;;;;34.88;20.73;;;2.80;99.90;;;;;;4941145;29;20446;-78
2021/01/08 00:08:05;;;;;;;31.33;18.20;;;2.80;99.90;;;;;;4952610;29;20051;-79
2021/01/08 00:10:32;;;;;;;33.60;19.27;;;2.80;99.90;;;;;;4952877;29;20036;-80
2021/01/08 00:12:58;;;;;;;33.65;20.60;;;2.80;99.90;;;;;;4950009;29;20055;-78
2021/01/08 00:15:25;;;;;;;31.05;18.60;;;2.80;99.90;;;;;;4964609;29;20047;-79
2021/01/08 00:17:52;;;;;;;32.83;20.08;;;2.80;99.90;;;;;;4958491;29;20079;-80
2021/01/08 00:20:19;;;;;;;23.00;13.50;;;2.90;99.90;;;;;;4958895;29;20074;-81
2021/01/08 00:22:46;;;;;;;29.30;17.30;;;2.90;99.90;;;;;;4955420;29;20055;-78
2021/01/08 00:25:12;;;;;;;26.65;16.75;;;2.80;99.90;;;;;;4956208;29;20055;-81
2021/01/08 00:27:39;;;;;;;32.33;18.90;;;2.80;99.90;;;;;;4955206;29;20528;-79
2021/01/08 00:30:06;;;;;;;28.10;16.92;;;2.80;99.90;;;;;;4948679;29;20216;-79
2021/01/08 00:32:33;;;;;;;21.90;13.27;;;2.80;99.90;;;;;;4948675;29;20043;-81
2021/01/08 00:35:00;;;;;;;29.08;17.05;;;2.80;99.90;;;;;;4949981;29;20143;-81
2021/01/08 00:37:27;;;;;;;30.77;18.33;;;2.70;99.90;;;;;;4946956;29;20089;-81
2021/01/08 00:39:53;;;;;;;32.70;19.17;;;2.70;99.90;;;;;;4948848;29;20047;-79
2021/01/08 00:42:19;;;;;;;23.83;13.55;;;2.70;99.90;;;;;;4955442;29;20093;-81
2021/01/08 00:44:46;;;;;;;30.52;18.20;;;2.70;99.90;;;;;;4958038;28;20106;-81
2021/01/08 00:47:12;;;;;;;28.83;16.75;;;2.70;99.90;;;;;;4958742;29;20074;-82
2021/01/08 00:49:39;;;;;;;28.75;16.83;;;2.70;99.90;;;;;;4959409;29;20146;-82
2021/01/08 00:52:06;;;;;;;33.22;18.10;;;2.60;99.90;;;;;;4958028;29;20047;-81
2021/01/08 00:54:32;;;;;;;32.55;18.83;;;2.60;99.90;;;;;;4959531;29;20051;-81
2021/01/08 00:56:59;;;;;;;31.45;17.65;;;2.60;99.90;;;;;;4971761;23;20142;-79
2021/01/08 00:59:25;;;;;;;32.50;18.75;;;2.60;99.90;;;;;;4950960;29;20082;-79
2021/01/08 01:01:51;;;;;;;29.40;15.32;;;2.60;99.90;;;;;;4959152;29;20086;-80
2021/01/08 01:04:18;;;;;;;30.20;18.05;;;2.60;99.90;;;;;;4960237;29;20159;-80
2021/01/08 01:06:44;;;;;;;34.22;17.77;;;2.60;99.90;;;;;;4959812;29;20058;-80
2021/01/08 01:09:11;;;;;;;32.40;19.65;;;2.50;99.90;;;;;;4960379;29;20130;-80
2021/01/08 01:11:39;;;;;;;31.10;15.82;;;2.50;99.90;;;;;;4959221;29;20090;-79
2021/01/08 01:14:06;;;;;;;32.58;17.90;;;2.50;99.90;;;;;;4957343;29;20051;-79
2021/01/08 01:16:32;;;;;;;29.67;17.92;;;2.60;99.90;;;;;;4957274;29;20082;-79
2021/01/08 01:18:59;;;;;;;33.80;19.30;;;2.60;99.90;;;;;;4957357;29;20105;-79
2021/01/08 01:21:27;;;;;;;34.60;20.77;;;2.50;99.90;;;;;;4957543;29;20091;-79
2021/01/08 01:23:54;;;;;;;31.90;18.42;;;2.50;99.90;;;;;;4960891;29;20062;-80
2021/01/08 01:26:21;;;;;;;32.28;18.80;;;2.50;99.90;;;;;;4960808;29;20066;-80
2021/01/08 01:28:47;;;;;;;36.55;20.80;;;2.50;99.90;;;;;;4960811;29;20075;-79
2021/01/08 01:31:14;;;;;;;36.00;20.40;;;2.40;99.90;;;;;;4960820;29;20051;-80
2021/01/08 01:33:40;;;;;;;38.33;21.90;;;2.40;99.90;;;;;;4960159;29;20101;-81
2021/01/08 01:36:09;;;;;;;38.95;22.40;;;2.40;99.90;;;;;;4962102;29;20079;-79
2021/01/08 01:38:36;;;;;;;39.40;22.67;;;2.40;99.90;;;;;;4962934;29;20082;-79
2021/01/08 01:41:03;;;;;;;41.72;23.15;;;2.40;99.90;;;;;;4963609;29;20089;-79
2021/01/08 01:43:31;;;;;;;36.28;19.10;;;2.50;99.90;;;;;;4960007;29;20051;-80
2021/01/08 01:45:57;;;;;;;41.03;21.30;;;2.50;99.90;;;;;;4958597;29;20138;-79
2021/01/08 01:48:24;;;;;;;38.92;21.35;;;2.50;99.90;;;;;;4963483;29;20079;-79
2021/01/08 01:50:52;;;;;;;36.15;19.33;;;2.50;99.90;;;;;;4964983;29;20094;-79
2021/01/08 01:53:18;;;;;;;36.15;20.67;;;2.60;99.90;;;;;;4957594;29;20567;-79
2021/01/08 01:55:47;;;;;;;31.58;17.05;;;2.60;99.90;;;;;;4958724;29;20170;-79
2021/01/08 01:58:14;;;;;;;33.92;18.77;;;2.50;99.90;;;;;;4961225;28;20047;-79
2021/01/08 02:00:41;;;;;;;35.15;19.05;;;2.40;99.90;;;;;;4962281;29;20058;-79
2021/01/08 02:03:12;;;;;;;40.28;21.83;;;2.40;99.90;;;;;;4963522;29;20133;-80
2021/01/08 02:05:40;;;;;;;39.92;21.70;;;2.30;99.90;;;;;;4974050;29;20059;-80
2021/01/08 02:08:10;;;;;;;44.22;22.10;;;2.30;99.90;;;;;;4972423;29;20055;-80
2021/01/08 02:10:40;;;;;;;41.55;21.52;;;2.30;99.90;;;;;;4963634;29;20495;-79
2021/01/08 02:13:12;;;;;;;30.08;16.50;;;2.30;99.90;;;;;;4963638;29;20143;-80
2021/01/08 02:15:39;;;;;;;35.00;20.05;;;2.30;99.90;;;;;;4962227;29;20133;-79
2021/01/08 02:18:07;;;;;;;33.03;18.60;;;2.20;99.90;;;;;;4962356;29;20130;-79
2021/01/08 02:20:33;;;;;;;35.80;20.40;;;2.20;99.90;;;;;;4962173;29;20134;-80
2021/01/08 02:23:07;;;;;;;32.45;18.25;;;2.20;99.90;;;;;;4962793;29;20149;-80
2021/01/08 02:25:37;;;;;;;36.33;19.15;;;2.20;99.90;;;;;;4961816;29;20047;-79
2021/01/08 02:28:22;;;;;;;30.50;16.00;;;2.20;99.90;;;;;;4961703;29;20047;-78
2021/01/08 02:30:50;;;;;;;30.55;17.15;;;2.20;99.90;;;;;;4961860;29;20174;-80
2021/01/08 02:33:18;;;;;;;34.30;18.38;;;2.20;99.90;;;;;;4962434;29;20103;-79
2021/01/08 02:35:46;;;;;;;31.60;16.98;;;2.20;99.90;;;;;;4962434;29;20059;-79
2021/01/08 02:38:14;;;;;;;28.65;16.77;;;2.20;99.90;;;;;;4962767;29;20190;-79
2021/01/08 02:40:44;;;;;;;28.98;16.65;;;2.20;99.90;;;;;;4963357;29;20079;-80
2021/01/08 02:43:13;;;;;;;26.90;15.82;;;2.20;99.90;;;;;;4962578;29;20138;-79
2021/01/08 02:45:40;;;;;;;27.02;16.02;;;2.20;99.90;;;;;;4962635;29;20051;-79
2021/01/08 02:48:07;;;;;;;27.33;15.50;;;2.20;99.90;;;;;;4963402;29;20428;-79
2021/01/08 02:50:33;;;;;;;26.60;15.48;;;2.20;99.90;;;;;;4968527;29;20054;-79
2021/01/08 02:53:05;;;;;;;28.95;18.00;;;2.20;99.90;;;;;;4975234;29;20047;-79
2021/01/08 02:55:33;;;;;;;28.30;16.48;;;2.20;99.90;;;;;;4973193;29;20078;-79
2021/01/08 02:58:03;;;;;;;26.15;15.55;;;2.20;99.90;;;;;;4964010;28;20085;-79
2021/01/08 03:00:30;;;;;;;28.55;16.58;;;2.20;99.90;;;;;;4962600;29;20514;-79
2021/01/08 03:02:58;;;;;;;32.55;17.75;;;2.20;99.90;;;;;;4962223;29;20538;-79
2021/01/08 03:05:27;;;;;;;27.17;16.20;;;2.20;99.90;;;;;;4961297;29;20047;-79
2021/01/08 03:07:54;;;;;;;27.73;15.85;;;2.20;99.90;;;;;;4960915;28;20058;-78
2021/01/08 03:10:20;;;;;;;31.42;16.25;;;2.30;99.90;;;;;;4958644;29;20138;-78
2021/01/08 03:12:55;;;;;;;28.00;15.93;;;2.20;99.90;;;;;;4959641;29;20186;-78
2021/01/08 03:15:23;;;;;;;30.25;17.65;;;2.20;99.90;;;;;;4959634;29;20467;-78
2021/01/08 03:17:49;;;;;;;29.40;16.25;;;2.20;99.90;;;;;;4959843;29;20047;-78
2021/01/08 03:20:15;;;;;;;30.05;17.23;;;2.20;99.90;;;;;;4961540;29;20055;-79
2021/01/08 03:22:42;;;;;;;28.58;15.63;;;2.20;99.90;;;;;;4961431;29;20198;-79
2021/01/08 03:25:09;;;;;;;31.02;18.48;;;2.30;99.90;;;;;;4962358;29;20121;-81
2021/01/08 03:27:36;;;;;;;31.15;17.60;;;2.20;99.90;;;;;;4963137;29;20094;-80
2021/01/08 03:30:04;;;;;;;29.55;16.83;;;2.20;99.90;;;;;;4962804;29;20527;-81
2021/01/08 03:32:31;;;;;;;30.33;18.17;;;2.20;99.90;;;;;;4962189;29;20144;-81
2021/01/08 03:34:58;;;;;;;28.35;18.10;;;2.20;99.90;;;;;;4962207;29;20078;-80
2021/01/08 03:37:24;;;;;;;30.60;17.70;;;2.20;99.90;;;;;;4961939;29;20109;-80
2021/01/08 03:39:50;;;;;;;30.88;18.70;;;2.20;99.90;;;;;;4962205;29;20075;-80
2021/01/08 03:42:17;;;;;;;31.45;17.63;;;2.20;99.90;;;;;;4961934;29;20130;-81
2021/01/08 03:44:43;;;;;;;29.35;16.52;;;2.20;99.90;;;;;;4972146;29;20047;-81
2021/01/08 03:47:10;;;;;;;30.27;17.55;;;2.20;99.90;;;;;;4968991;29;20107;-81
2021/01/08 03:49:38;;;;;;;29.23;16.65;;;2.20;99.90;;;;;;4969181;29;20162;-80
2021/01/08 03:52:05;;;;;;;31.95;17.77;;;2.30;99.90;;;;;;4976153;29;20065;-81
2021/01/08 03:54:32;;;;;;;29.25;17.73;;;2.20;99.90;;;;;;4974823;29;20411;-80
2021/01/08 03:56:58;;;;;;;31.45;17.67;;;2.30;99.90;;;;;;4974889;28;20047;-80
2021/01/08 03:59:25;;;;;;;31.55;18.55;;;2.30;99.90;;;;;;4973039;29;20047;-80
2021/01/08 04:01:52;;;;;;;26.73;15.13;;;2.30;99.90;;;;;;4960724;29;20151;-80
2021/01/08 04:04:18;;;;;;;27.80;16.63;;;2.40;99.90;;;;;;4961384;29;20098;-80
2021/01/08 04:06:46;;;;;;;25.70;15.20;;;2.30;99.90;;;;;;4961413;29;20083;-80
2021/01/08 04:09:12;;;;;;;27.77;16.17;;;2.30;99.90;;;;;;4961766;29;20141;-80
2021/01/08 04:11:39;;;;;;;29.60;16.45;;;2.40;99.90;;;;;;4973724;29;20055;-80
2021/01/08 04:14:05;;;;;;;24.00;15.20;;;2.40;99.90;;;;;;4966580;29;20138;-80
2021/01/08 04:16:33;;;;;;;26.70;15.98;;;2.40;99.90;;;;;;4961455;29;20094;-80
2021/01/08 04:18:59;;;;;;;26.67;15.77;;;2.40;99.90;;;;;;4961991;29;20134;-82
2021/01/08 04:21:25;;;;;;;28.20;15.38;;;2.40;99.90;;;;;;4961218;28;20138;-80
2021/01/08 04:23:53;;;;;;;26.30;14.32;;;2.40;99.90;;;;;;4962595;29;20086;-81
2021/01/08 04:26:19;;;;;;;25.40;14.68;;;2.30;99.90;;;;;;4965214;29;20119;-81
2021/01/08 04:28:45;;;;;;;26.73;14.48;;;2.30;99.90;;;;;;4971827;29;20443;-80
2021/01/08 04:31:12;;;;;;;23.27;14.45;;;2.30;99.90;;;;;;4966767;29;20106;-81
2021/01/08 04:33:40;;;;;;;26.30;15.07;;;2.30;99.90;;;;;;4954269;29;20139;-82
2021/01/08 04:36:07;;;;;;;25.50;14.43;;;2.30;99.90;;;;;;4941998;29;20078;-82
2021/01/08 04:38:34;;;;;;;27.33;15.25;;;2.30;99.90;;;;;;4941169;29;20083;-81
2021/01/08 04:41:02;;;;;;;23.55;13.80;;;2.30;99.90;;;;;;4941664;29;20150;-81
2021/01/08 04:43:29;;;;;;;26.55;14.90;;;2.30;99.90;;;;;;4940569;29;20131;-81
2021/01/08 04:45:58;;;;;;;24.85;14.20;;;2.40;99.90;;;;;;4951348;29;20086;-80
2021/01/08 04:48:25;;;;;;;24.27;13.57;;;2.30;99.90;;;;;;4959460;29;20055;-79
2021/01/08 04:50:58;;;;;;;23.60;14.50;;;2.30;99.90;;;;;;4957521;29;20111;-79
2021/01/08 04:53:25;;;;;;;17.77;10.05;;;2.30;99.90;;;;;;4959002;29;20051;-79
2021/01/08 04:55:52;;;;;;;20.95;12.13;;;2.30;99.90;;;;;;4959394;29;20456;-79
2021/01/08 04:58:19;;;;;;;21.40;12.63;;;2.30;99.90;;;;;;4958387;28;20090;-79
2021/01/08 05:00:47;;;;;;;25.35;14.07;;;2.30;99.90;;;;;;4958765;29;20082;-79
2021/01/08 05:03:15;;;;;;;24.20;13.35;;;2.30;99.90;;;;;;4958970;29;20047;-79
2021/01/08 05:05:41;;;;;;;22.90;12.65;;;2.30;99.90;;;;;;4957677;29;20134;-80
2021/01/08 05:08:07;;;;;;;22.25;12.57;;;2.30;99.90;;;;;;4956810;29;20119;-80
2021/01/08 05:10:34;;;;;;;20.60;11.38;;;2.30;99.90;;;;;;4959179;29;20480;-80
2021/01/08 05:13:00;;;;;;;20.40;11.63;;;2.30;99.90;;;;;;4958084;29;20079;-80
2021/01/08 05:15:28;;;;;;;19.75;11.02;;;2.30;99.90;;;;;;4958563;29;20555;-81
2021/01/08 05:17:54;;;;;;;19.40;10.82;;;2.30;99.90;;;;;;4957619;29;20182;-81
2021/01/08 05:20:20;;;;;;;18.60;10.88;;;2.30;99.90;;;;;;4958666;29;20055;-81
2021/01/08 05:22:49;;;;;;;18.13;9.93;;;2.30;99.90;;;;;;4957785;29;20130;-82
2021/01/08 05:25:16;;;;;;;20.80;11.93;;;2.20;99.90;;;;;;4956849;29;20093;-79
2021/01/08 05:27:43;;;;;;;19.45;10.82;;;2.20;99.90;;;;;;4957138;29;20486;-80
2021/01/08 05:30:14;;;;;;;21.13;10.98;;;2.20;99.90;;;;;;4957653;29;20109;-79
2021/01/08 05:32:41;;;;;;;21.02;12.00;;;2.20;99.90;;;;;;4955539;29;20051;-79
2021/01/08 05:35:09;;;;;;;22.15;11.82;;;2.20;99.90;;;;;;4955502;29;20111;-79
2021/01/08 05:37:35;;;;;;;21.27;12.32;;;2.20;99.90;;;;;;4955213;29;20093;-79
2021/01/08 05:40:04;;;;;;;24.85;13.60;;;2.20;99.90;;;;;;4954664;29;20147;-79
2021/01/08 05:42:31;;;;;;;21.58;12.65;;;2.20;99.90;;;;;;4955128;29;20178;-79
2021/01/08 05:44:57;;;;;;;22.67;12.35;;;2.20;99.90;;;;;;4954556;29;20548;-78
2021/01/08 05:47:25;;;;;;;22.75;12.15;;;2.20;99.90;;;;;;4954300;29;20198;-79
2021/01/08 05:49:57;;;;;;;19.27;11.15;;;2.10;99.90;;;;;;4954495;29;20047;-80
2021/01/08 05:52:24;;;;;;;22.98;12.68;;;2.20;99.90;;;;;;4954668;29;20056;-79
2021/01/08 05:54:51;;;;;;;19.67;11.13;;;2.20;99.90;;;;;;4957638;29;20099;-79
2021/01/08 05:57:18;;;;;;;19.63;10.73;;;2.20;99.90;;;;;;4958706;29;20114;-79
2021/01/08 05:59:45;;;;;;;18.73;10.15;;;2.20;99.90;;;;;;4959239;29;20097;-79
2021/01/08 06:02:12;;;;;;;19.58;10.82;;;2.20;99.90;;;;;;4959772;29;20091;-80
2021/01/08 06:04:40;;;;;;;22.25;11.05;;;2.20;99.90;;;;;;4958951;29;20138;-80
2021/01/08 06:07:16;;;;;;;21.35;11.13;;;2.20;99.90;;;;;;4959392;29;20089;-80
2021/01/08 06:09:49;;;;;;;19.65;11.05;;;2.20;99.90;;;;;;4949160;29;20075;-79
2021/01/08 06:12:17;;;;;;;19.75;10.95;;;2.20;99.90;;;;;;4939190;29;20138;-79
2021/01/08 06:14:44;;;;;;;18.08;9.73;;;2.20;99.90;;;;;;4939632;29;20143;-80
2021/01/08 06:17:17;;;;;;;16.13;9.73;;;2.20;99.90;;;;;;4939382;29;20106;-80
2021/01/08 06:19:43;;;;;;;;;;;2.20;99.90;;;;;;4938830;29;20150;-79
2021/01/08 06:22:23;;;;;;;17.95;9.93;;;2.20;99.90;;;;;;4936138;29;20018;-80
2021/01/08 06:24:54;;;;;;;19.08;9.77;;;2.10;99.90;;;;;;4936013;29;20048;-79
2021/01/08 06:27:25;;;;;;;19.58;10.30;;;2.10;99.90;;;;;;4935455;29;20051;-79
2021/01/08 06:29:59;;;;;;;22.10;11.27;;;2.00;99.90;;;;;;4935747;29;20051;-79
2021/01/08 06:32:29;;;;;;;18.63;10.93;;;2.10;99.90;;;;;;4935555;29;20056;-79
2021/01/08 06:35:07;;;;;;;18.67;10.20;;;2.00;99.90;;;;;;4936126;29;20134;-79
2021/01/08 06:37:41;;;;;;;21.98;11.10;;;2.00;99.90;;;;;;4935179;29;20052;-79
2021/01/08 06:40:10;;;;;;;20.27;11.23;;;2.00;99.90;;;;;;4935791;29;20540;-80
2021/01/08 06:42:47;;;;;;;25.02;13.50;;;2.10;99.90;;;;;;4934378;29;20135;-79
2021/01/08 06:45:15;;;;;;;21.50;13.10;;;2.10;99.90;;;;;;4938084;29;20425;-79
2021/01/08 06:47:46;;;;;;;23.92;14.07;;;2.00;99.90;;;;;;4938472;29;20449;-79
2021/01/08 06:50:18;;;;;;;24.13;14.07;;;2.00;99.90;;;;;;4939230;29;20139;-79
2021/01/08 06:52:46;;;;;;;26.52;14.77;;;2.00;99.90;;;;;;4939796;29;20552;-79
2021/01/08 06:55:18;;;;;;;26.40;15.25;;;2.10;99.90;;;;;;4941367;29;20044;-80
2021/01/08 06:57:55;;;;;;;25.67;15.00;;;2.10;99.90;;;;;;4943610;29;20143;-79
2021/01/08 07:00:26;;;;;;;28.73;15.73;;;2.10;99.90;;;;;;4942082;29;20338;-80
2021/01/08 07:02:56;;;;;;;25.60;15.30;;;2.10;99.90;;;;;;4941665;29;20083;-80
2021/01/08 07:05:23;;;;;;;25.98;16.05;;;2.00;99.90;;;;;;4941555;29;20131;-79
2021/01/08 07:07:51;;;;;;;27.25;16.65;;;2.00;99.90;;;;;;4939143;29;20130;-79
2021/01/08 07:10:19;;;;;;;28.63;16.75;;;2.00;99.90;;;;;;4938348;29;20642;-80
2021/01/08 07:12:48;;;;;;;27.70;16.52;;;2.00;99.90;;;;;;4940914;29;20055;-78
2021/01/08 07:15:15;;;;;;;26.83;15.82;;;2.00;99.90;;;;;;4942668;29;20043;-80
2021/01/08 07:17:42;;;;;;;25.38;15.07;;;2.00;99.90;;;;;;4942734;29;20484;-80
2021/01/08 07:20:09;;;;;;;30.48;17.98;;;2.00;99.90;;;;;;4947181;29;20493;-81
2021/01/08 07:22:40;;;;;;;29.45;17.42;;;2.00;99.90;;;;;;4939474;29;20134;-80
2021/01/08 07:25:12;;;;;;;28.30;16.83;;;2.00;99.90;;;;;;4939408;29;20139;-79
2021/01/08 07:27:41;;;;;;;22.33;13.32;;;2.00;99.90;;;;;;4940458;29;20134;-80
2021/01/08 07:30:09;;;;;;;28.17;16.63;;;2.00;99.90;;;;;;4939970;29;20138;-79
2021/01/08 07:32:42;;;;;;;29.75;18.00;;;2.00;99.90;;;;;;4938861;29;20135;-80
2021/01/08 07:35:20;;;;;;;34.28;20.30;;;2.10;99.90;;;;;;4939261;29;20142;-80
2021/01/08 07:37:58;;;;;;;31.65;18.65;;;2.00;99.90;;;;;;4938689;29;20090;-80
2021/01/08 07:40:27;;;;;;;32.17;18.65;;;2.00;99.90;;;;;;4938694;29;20051;-77
2021/01/08 07:43:04;;;;;;;36.78;21.20;;;2.00;99.90;;;;;;4938079;29;20432;-80
2021/01/08 07:45:51;;;;;;;36.30;20.70;;;2.10;99.90;;;;;;4939346;29;20091;-80
2021/01/08 07:48:22;;;;;;;38.58;21.48;;;2.10;99.90;;;;;;4938482;29;20098;-81
2021/01/08 07:50:57;;;;;;;41.28;23.30;;;2.00;99.90;;;;;;4938826;29;20087;-80
2021/01/08 07:53:48;;;;;;;39.03;22.85;;;2.00;99.90;;;;;;4938388;29;20111;-80
2021/01/08 07:56:17;;;;;;;42.08;22.38;;;2.10;99.90;;;;;;4923319;29;20051;-80
2021/01/08 07:58:45;;;;;;;34.03;20.48;;;2.10;99.90;;;;;;4938860;29;20083;-80
2021/01/08 08:01:14;;;;;;;40.42;22.85;;;2.10;99.90;;;;;;4938404;29;20055;-80
2021/01/08 08:03:41;;;;;;;36.15;21.98;;;2.10;99.90;;;;;;4938968;29;20442;-79
2021/01/08 08:06:08;;;;;;;39.33;22.23;;;2.00;99.90;;;;;;4939092;29;20489;-80
2021/01/08 08:08:41;;;;;;;39.42;22.52;;;2.10;99.90;;;;;;4940228;29;20094;-80
2021/01/08 08:11:09;;;;;;;35.25;20.15;;;2.20;99.90;;;;;;4938789;29;20059;-79
2021/01/08 08:13:36;;;;;;;38.88;20.83;;;2.20;99.90;;;;;;4937675;29;20134;-79
2021/01/08 08:16:04;;;;;;;33.83;19.13;;;2.20;99.90;;;;;;4938133;29;20075;-79
2021/01/08 08:18:30;;;;;;;33.50;18.50;;;2.30;99.90;;;;;;4939208;29;20059;-80
2021/01/08 08:21:09;;;;;;;35.50;20.58;;;2.30;99.90;;;;;;4937855;29;20055;-82
2021/01/08 08:23:36;;;;;;;35.08;21.25;;;2.30;99.90;;;;;;4938356;29;20139;-80
2021/01/08 08:26:04;;;;;;;35.33;21.23;;;2.40;99.90;;;;;;4938660;29;20079;-80
2021/01/08 08:28:31;;;;;;;32.85;19.30;;;2.40;99.90;;;;;;4938357;29;20190;-80
2021/01/08 08:30:59;;;;;;;34.47;19.95;;;2.50;99.90;;;;;;4938255;29;20175;-79
2021/01/08 08:33:26;;;;;;;35.70;18.88;;;2.50;99.90;;;;;;4938667;29;20048;-79
2021/01/08 08:35:52;;;;;;;33.00;18.02;;;2.50;99.90;;;;;;4939145;29;20098;-78
2021/01/08 08:38:19;;;;;;;33.58;18.15;;;2.50;99.90;;;;;;4938568;29;20602;-79
2021/01/08 08:40:46;;;;;;;33.30;17.75;;;2.50;99.90;;;;;;4937408;29;20130;-80
2021/01/08 08:43:20;;;;;;;31.98;18.23;;;2.60;99.90;;;;;;4938057;29;20087;-80
2021/01/08 08:45:47;;;;;;;30.30;17.13;;;2.70;99.90;;;;;;4937710;29;20522;-78
2021/01/08 08:48:14;;;;;;;29.05;16.58;;;2.70;99.90;;;;;;4938660;29;20409;-80
2021/01/08 08:50:45;;;;;;;29.25;16.63;;;2.70;99.90;;;;;;4938334;29;20051;-80
2021/01/08 08:53:12;;;;;;;26.90;15.18;;;2.70;99.90;;;;;;4938769;29;20094;-79
2021/01/08 08:55:38;;;;;;;30.85;15.57;;;2.70;99.90;;;;;;4942458;29;20107;-80
2021/01/08 08:58:07;;;;;;;25.63;14.93;;;2.70;99.90;;;;;;4939576;29;20516;-79
2021/01/08 09:00:35;;;;;;;25.88;15.68;;;2.70;99.90;;;;;;4938332;29;20111;-79
2021/01/08 09:03:01;;;;;;;28.48;16.50;;;2.70;99.90;;;;;;4938433;29;20130;-79
2021/01/08 09:05:33;;;;;;;27.52;17.17;;;2.80;99.90;;;;;;4938844;29;20087;-80
2021/01/08 09:08:06;;;;;;;28.27;16.37;;;2.80;99.90;;;;;;4940225;29;20082;-79
2021/01/08 09:10:36;;;;;;;27.92;16.73;;;2.80;99.90;;;;;;4940802;29;20321;-79
2021/01/08 09:13:11;;;;;;;30.83;17.08;;;2.90;99.90;;;;;;4941410;29;20090;-79
2021/01/08 09:15:48;;;;;;;32.97;17.90;;;2.90;99.90;;;;;;4940870;29;20484;-79
2021/01/08 09:18:28;;;;;;;27.45;16.85;;;2.90;99.90;;;;;;4939987;29;20083;-80
2021/01/08 09:21:02;;;;;;;31.27;17.52;;;2.90;99.90;;;;;;4939884;29;20163;-79
2021/01/08 09:23:31;;;;;;;30.75;17.75;;;2.90;99.90;;;;;;4940832;29;20059;-79
2021/01/08 09:26:03;;;;;;;30.13;15.85;;;3.00;99.90;;;;;;4939855;29;20139;-80
2021/01/08 09:28:29;;;;;;;27.63;17.75;;;2.90;99.90;;;;;;4940001;29;20052;-80
2021/01/08 09:30:56;;;;;;;29.52;17.85;;;2.90;99.90;;;;;;4941027;29;20535;-80
2021/01/08 09:33:22;;;;;;;28.73;17.60;;;3.00;99.90;;;;;;4945168;29;20086;-81
2021/01/08 09:35:50;;;;;;;32.45;19.15;;;3.00;99.90;;;;;;4943202;29;20071;-82
2021/01/08 09:38:24;;;;;;;27.20;16.33;;;3.10;99.90;;;;;;4944183;29;20087;-81
2021/01/08 09:40:50;;;;;;;26.48;15.73;;;3.10;99.90;;;;;;4943821;29;20056;-81
2021/01/08 09:43:18;;;;;;;26.75;16.98;;;3.10;99.90;;;;;;4941951;29;20052;-79
2021/01/08 09:45:45;;;;;;;27.83;16.27;;;3.00;99.90;;;;;;4938396;29;20596;-81
2021/01/08 09:48:21;;;;;;;28.90;15.95;;;3.10;99.90;;;;;;4938431;29;20130;-80
2021/01/08 09:50:59;;;;;;;29.65;17.02;;;3.20;99.90;;;;;;4938575;29;20071;-79
2021/01/08 09:53:27;;;;;;;26.15;16.30;;;3.20;99.90;;;;;;4938503;29;20052;-81
2021/01/08 09:55:53;;;;;;;28.42;16.77;;;3.30;99.90;;;;;;4941878;29;20135;-80
2021/01/08 09:58:19;;;;;;;24.95;14.35;;;3.30;99.90;;;;;;4941937;29;20543;-81
2021/01/08 10:00:50;;;;;;;27.08;15.73;;;3.30;99.90;;;;;;4941896;29;20082;-81
2021/01/08 10:03:20;;;;;;;28.13;16.83;;;3.30;99.90;;;;;;4942211;29;20457;-81
2021/01/08 10:05:47;;;;;;;26.50;16.05;;;3.40;99.90;;;;;;4942907;29;20048;-81
2021/01/08 10:08:22;;;;;;;28.35;17.83;;;3.50;99.90;;;;;;4938451;29;20135;-81
2021/01/08 10:10:49;;;;;;;30.10;17.40;;;3.50;99.90;;;;;;4931271;29;20043;-81
2021/01/08 10:13:18;;;;;;;29.98;16.80;;;3.50;99.90;;;;;;4934035;29;20079;-80
2021/01/08 10:15:47;;;;;;;29.85;16.90;;;3.40;99.90;;;;;;4924373;29;20453;-81
2021/01/08 10:18:15;;;;;;;29.42;17.00;;;3.40;99.90;;;;;;4925320;29;20051;-80
2021/01/08 10:20:44;;;;;;;29.70;17.05;;;3.30;99.90;;;;;;4927675;29;20084;-80
2021/01/08 10:23:15;;;;;;;29.33;17.02;;;3.30;99.90;;;;;;4927112;29;20136;-80
2021/01/08 10:25:41;;;;;;;30.95;16.88;;;3.30;99.90;;;;;;4945181;29;20082;-81
2021/01/08 10:28:27;;;;;;;28.00;15.75;;;3.40;99.90;;;;;;4954191;29;20103;-80
2021/01/08 10:30:55;;;;;;;27.65;15.82;;;3.40;99.90;;;;;;4955393;29;20179;-81
2021/01/08 10:33:22;;;;;;;25.67;15.80;;;3.40;99.90;;;;;;4953930;29;20566;-81
2021/01/08 10:35:51;;;;;;;28.77;15.25;;;3.50;99.90;;;;;;4955608;29;20083;-82
2021/01/08 10:38:18;;;;;;;25.92;16.42;;;3.50;99.90;;;;;;4954571;29;20062;-82
2021/01/08 10:40:44;;;;;;;26.38;15.85;;;3.50;99.90;;;;;;4955274;29;20071;-83
2021/01/08 10:43:11;;;;;;;28.75;16.50;;;3.50;99.90;;;;;;4956725;29;20082;-81
2021/01/08 10:45:38;;;;;;;31.27;15.82;;;3.60;99.90;;;;;;4950180;29;20107;-81
2021/01/08 10:48:07;;;;;;;29.75;16.95;;;3.70;99.90;;;;;;4955740;29;20083;-82
2021/01/08 10:50:34;;;;;;;28.35;16.05;;;3.70;99.90;;;;;;4947606;29;20075;-81
2021/01/08 10:53:01;;;;;;;27.40;16.08;;;3.70;99.90;;;;;;4946576;29;20080;-81
2021/01/08 10:55:27;;;;;;;26.08;15.93;;;3.80;99.90;;;;;;4946462;29;20047;-82
2021/01/08 10:57:55;;;;;;;28.90;17.15;;;3.80;99.90;;;;;;4946604;29;20086;-81
2021/01/08 11:00:22;;;;;;;24.52;15.25;;;3.80;99.90;;;;;;4946353;29;20080;-81
2021/01/08 11:02:49;;;;;;;29.42;16.88;;;3.80;99.90;;;;;;4946039;29;20512;-80
2021/01/08 11:05:16;;;;;;;29.58;17.80;;;3.70;99.90;;;;;;4946239;29;20075;-83
2021/01/08 11:07:42;;;;;;;26.25;15.13;;;3.70;99.90;;;;;;4946877;29;20052;-83
2021/01/08 11:10:10;;;;;;;26.20;15.20;;;3.80;99.90;;;;;;4946356;29;20130;-81
2021/01/08 11:12:37;;;;;;;26.55;15.05;;;3.80;99.90;;;;;;4944675;29;20111;-83
2021/01/08 11:15:05;;;;;;;24.00;14.43;;;3.70;99.90;;;;;;4946160;29;20056;-84
2021/01/08 11:17:31;;;;;;;24.17;14.30;;;3.70;99.90;;;;;;4944403;29;20131;-80
2021/01/08 11:19:58;;;;;;;23.48;14.70;;;3.70;99.90;;;;;;4944341;29;20094;-80
2021/01/08 11:22:25;;;;;;;25.02;15.25;;;3.80;99.90;;;;;;4940874;29;20086;-81
2021/01/08 11:24:52;;;;;;;25.95;13.95;;;3.80;99.90;;;;;;4946188;29;20044;-81
2021/01/08 11:27:18;;;;;;;26.50;14.65;;;3.80;99.90;;;;;;4946296;29;20079;-81
2021/01/08 11:29:45;;;;;;;25.70;14.95;;;4.00;99.90;;;;;;4945192;29;20472;-82
2021/01/08 11:32:11;;;;;;;25.38;15.80;;;4.00;99.90;;;;;;4957056;29;20079;-81
2021/01/08 11:34:39;;;;;;;26.60;16.75;;;4.00;99.90;;;;;;4956404;29;20060;-81
2021/01/08 11:37:07;;;;;;;27.85;15.25;;;3.80;99.90;;;;;;4951345;29;20078;-82
2021/01/08 11:39:36;;;;;;;24.92;15.30;;;3.90;99.90;;;;;;4943111;29;20052;-81
2021/01/08 11:42:03;;;;;;;31.80;17.13;;;3.90;99.90;;;;;;4943319;29;20055;-80
2021/01/08 11:44:29;;;;;;;26.80;16.13;;;3.90;99.90;;;;;;4946119;29;20070;-81
2021/01/08 11:46:56;;;;;;;28.25;16.25;;;4.00;99.90;;;;;;4941010;29;20052;-82
2021/01/08 11:49:22;;;;;;;28.15;17.13;;;3.80;99.90;;;;;;4942120;29;20155;-80
2021/01/08 11:51:48;;;;;;;30.17;18.05;;;4.00;99.90;;;;;;4942526;29;20102;-80
2021/01/08 11:54:16;;;;;;;28.48;17.33;;;3.90;99.90;;;;;;4942126;29;20093;-80
2021/01/08 11:56:42;;;;;;;31.60;18.92;;;3.90;99.90;;;;;;4947636;29;20047;-80
2021/01/08 11:59:09;;;;;;;31.13;19.02;;;3.90;99.90;;;;;;4962717;29;20523;-83
2021/01/08 12:01:35;;;;;;;31.88;20.20;;;3.90;99.90;;;;;;4956653;29;20081;-82
2021/01/08 12:04:01;;;;;;;31.58;19.63;;;3.90;99.90;;;;;;4942918;29;20086;-81
2021/01/08 12:06:29;;;;;;;37.47;21.33;;;4.00;99.90;;;;;;4941061;29;20570;-81
2021/01/08 12:08:56;;;;;;;31.13;18.27;;;3.90;99.90;;;;;;4941942;29;20062;-82
2021/01/08 12:11:24;;;;;;;30.58;18.73;;;4.00;99.90;;;;;;4941344;29;20143;-81
2021/01/08 12:13:51;;;;;;;31.95;19.15;;;3.80;99.90;;;;;;4941093;29;20048;-79
2021/01/08 12:16:24;;;;;;;29.63;18.60;;;3.80;99.90;;;;;;4935839;29;20150;-82
2021/01/08 12:18:51;;;;;;;34.35;19.20;;;3.90;99.90;;;;;;4934424;29;20067;-79
2021/01/08 12:21:17;;;;;;;28.98;18.25;;;3.90;99.90;;;;;;4935710;29;20114;-78
2021/01/08 12:23:43;;;;;;;28.92;18.83;;;3.80;99.90;;;;;;4939730;29;20103;-79
2021/01/08 12:26:14;;;;;;;27.08;17.15;;;3.90;99.90;;;;;;4942536;29;20086;-81
2021/01/08 12:28:41;;;;;;;24.88;16.75;;;4.00;99.90;;;;;;4936001;29;20846;-81
2021/01/08 12:31:08;;;;;;;29.10;16.75;;;4.10;99.90;;;;;;4939980;29;20079;-81
2021/01/08 12:33:34;;;;;;;26.52;17.48;;;4.00;99.90;;;;;;4955628;29;20567;-81
2021/01/08 12:36:01;;;;;;;28.65;18.10;;;4.00;99.90;;;;;;4943510;29;20086;-79
2021/01/08 12:48:02;;;;;;;27.52;17.63;;;4.20;99.90;;;;;;5224066;23;20086;-81
2021/01/08 12:51:03;;;;;;;29.10;17.35;;;4.30;99.90;;;;;;4964738;28;20500;-79
2021/01/08 12:53:46;;;;;;;27.60;17.85;;;4.20;99.90;;;;;;4963770;28;20133;-81